sensor_id;sensor_type;location;lat;lon;timestamp;pressure;altitude;pressure_sealevel;temperature;humidity
46015;BME280;36844;51.898;-0.874;2023-05-12T00:00:56;100870.84;;;19.37;
46015;BME280;36844;51.898;-0.874;2023-05-12T00:03:22;100878.19;;;19.37;
46015;BME280;36844;51.898;-0.874;2023-05-12T00:05:48;100870.50;;;19.35;
46015;BME280;36844;51.898;-0.874;2023-05-12T00:08:13;100866.25;;;19.34;
46015;BME280;36844;51.898;-0.874;2023-05-12T00:10:38;100868.94;;;19.34;
46015;BME280;36844;51.898;-0.874;2023-05-12T00:13:03;100863.94;;;19.33;
46015;BME280;36844;51.898;-0.874;2023-05-12T00:15:29;100876.69;;;19.32;
46015;BME280;36844;51.898;-0.874;2023-05-12T00:17:54;100875.16;;;19.31;
46015;BME280;36844;51.898;-0.874;2023-05-12T00:20:19;100878.22;;;19.30;
46015;BME280;36844;51.898;-0.874;2023-05-12T00:22:44;100878.22;;;19.30;
46015;BME280;36844;51.898;-0.874;2023-05-12T00:25:09;100883.28;;;19.28;
46015;BME280;36844;51.898;-0.874;2023-05-12T00:27:35;100881.31;;;19.28;
46015;BME280;36844;51.898;-0.874;2023-05-12T00:30:00;100884.41;;;19.27;
46015;BME280;36844;51.898;-0.874;2023-05-12T00:32:25;100889.06;;;19.26;
46015;BME280;36844;51.898;-0.874;2023-05-12T00:34:51;100884.41;;;19.27;
46015;BME280;36844;51.898;-0.874;2023-05-12T00:37:18;100891.38;;;19.24;
46015;BME280;36844;51.898;-0.874;2023-05-12T00:39:43;100892.16;;;19.25;
46015;BME280;36844;51.898;-0.874;2023-05-12T00:42:08;100893.31;;;19.24;
46015;BME280;36844;51.898;-0.874;2023-05-12T00:44:33;100895.25;;;19.23;
46015;BME280;36844;51.898;-0.874;2023-05-12T00:46:59;100891.75;;;19.23;
46015;BME280;36844;51.898;-0.874;2023-05-12T00:49:24;100903.75;;;19.22;
46015;BME280;36844;51.898;-0.874;2023-05-12T00:51:50;100898.75;;;19.20;
46015;BME280;36844;51.898;-0.874;2023-05-12T00:54:15;100898.75;;;19.20;
46015;BME280;36844;51.898;-0.874;2023-05-12T00:56:41;100902.63;;;19.19;
46015;BME280;36844;51.898;-0.874;2023-05-12T00:59:06;100903.75;;;19.18;
46015;BME280;36844;51.898;-0.874;2023-05-12T01:01:32;100901.84;;;19.19;
46015;BME280;36844;51.898;-0.874;2023-05-12T01:03:57;100902.19;;;19.17;
46015;BME280;36844;51.898;-0.874;2023-05-12T01:06:25;100902.19;;;19.17;
46015;BME280;36844;51.898;-0.874;2023-05-12T01:08:52;100908.78;;;19.16;
46015;BME280;36844;51.898;-0.874;2023-05-12T01:11:18;100906.09;;;19.16;
46015;BME280;36844;51.898;-0.874;2023-05-12T01:13:43;100903.78;;;19.15;
46015;BME280;36844;51.898;-0.874;2023-05-12T01:16:08;100913.81;;;19.14;
46015;BME280;36844;51.898;-0.874;2023-05-12T01:18:36;100913.81;;;19.14;
46015;BME280;36844;51.898;-0.874;2023-05-12T01:21:02;100914.94;;;19.13;
46015;BME280;36844;51.898;-0.874;2023-05-12T01:23:30;100911.47;;;19.13;
46015;BME280;36844;51.898;-0.874;2023-05-12T01:26:07;100914.16;;;19.13;
46015;BME280;36844;51.898;-0.874;2023-05-12T01:28:33;100918.84;;;19.12;
46015;BME280;36844;51.898;-0.874;2023-05-12T01:30:59;100911.91;;;19.11;
46015;BME280;36844;51.898;-0.874;2023-05-12T01:33:24;100914.19;;;19.09;
46015;BME280;36844;51.898;-0.874;2023-05-12T01:35:49;100916.88;;;19.09;
46015;BME280;36844;51.898;-0.874;2023-05-12T01:38:15;100918.44;;;19.10;
46015;BME280;36844;51.898;-0.874;2023-05-12T01:40:40;100911.47;;;19.09;
46015;BME280;36844;51.898;-0.874;2023-05-12T01:43:05;100917.31;;;19.08;
46015;BME280;36844;51.898;-0.874;2023-05-12T01:45:30;100920.00;;;19.08;
46015;BME280;36844;51.898;-0.874;2023-05-12T01:47:55;100919.22;;;19.07;
46015;BME280;36844;51.898;-0.874;2023-05-12T01:50:21;100926.56;;;19.07;
46015;BME280;36844;51.898;-0.874;2023-05-12T01:52:46;100928.47;;;19.06;
46015;BME280;36844;51.898;-0.874;2023-05-12T01:55:11;100935.78;;;19.06;
46015;BME280;36844;51.898;-0.874;2023-05-12T01:57:36;100932.34;;;19.05;
46015;BME280;36844;51.898;-0.874;2023-05-12T02:00:02;100930.03;;;19.04;
46015;BME280;36844;51.898;-0.874;2023-05-12T02:02:27;100934.31;;;19.05;
46015;BME280;36844;51.898;-0.874;2023-05-12T02:04:55;100938.16;;;19.04;
46015;BME280;36844;51.898;-0.874;2023-05-12T02:07:20;100937.38;;;19.03;
46015;BME280;36844;51.898;-0.874;2023-05-12T02:09:45;100938.50;;;19.02;
46015;BME280;36844;51.898;-0.874;2023-05-12T02:12:11;100928.88;;;19.01;
46015;BME280;36844;51.898;-0.874;2023-05-12T02:14:36;100936.25;;;19.01;
46015;BME280;36844;51.898;-0.874;2023-05-12T02:17:01;100947.03;;;19.01;
46015;BME280;36844;51.898;-0.874;2023-05-12T02:19:28;100943.56;;;19.00;
46015;BME280;36844;51.898;-0.874;2023-05-12T02:21:53;100950.09;;;18.99;
46015;BME280;36844;51.898;-0.874;2023-05-12T02:24:18;100950.09;;;18.99;
46015;BME280;36844;51.898;-0.874;2023-05-12T02:26:45;100944.69;;;18.99;
46015;BME280;36844;51.898;-0.874;2023-05-12T02:29:10;100953.97;;;18.98;
46015;BME280;36844;51.898;-0.874;2023-05-12T02:31:36;100953.97;;;18.98;
46015;BME280;36844;51.898;-0.874;2023-05-12T02:34:01;100951.66;;;18.97;
46015;BME280;36844;51.898;-0.874;2023-05-12T02:36:27;100956.28;;;18.96;
46015;BME280;36844;51.898;-0.874;2023-05-12T02:38:52;100959.75;;;18.97;
46015;BME280;36844;51.898;-0.874;2023-05-12T02:41:18;100962.84;;;18.95;
46015;BME280;36844;51.898;-0.874;2023-05-12T02:43:43;100970.94;;;18.95;
46015;BME280;36844;51.898;-0.874;2023-05-12T02:46:08;100970.94;;;18.95;
46015;BME280;36844;51.898;-0.874;2023-05-12T02:48:33;100974.81;;;18.94;
46015;BME280;36844;51.898;-0.874;2023-05-12T02:50:58;100977.50;;;18.94;
46015;BME280;36844;51.898;-0.874;2023-05-12T02:53:24;100979.44;;;18.94;
46015;BME280;36844;51.898;-0.874;2023-05-12T02:55:50;100984.06;;;18.93;
46015;BME280;36844;51.898;-0.874;2023-05-12T02:58:16;100985.22;;;18.92;
46015;BME280;36844;51.898;-0.874;2023-05-12T03:00:41;100992.16;;;18.93;
46015;BME280;36844;51.898;-0.874;2023-05-12T03:03:06;100994.47;;;18.91;
46015;BME280;36844;51.898;-0.874;2023-05-12T03:05:31;100992.53;;;18.92;
46015;BME280;36844;51.898;-0.874;2023-05-12T03:07:57;100991.78;;;18.91;
46015;BME280;36844;51.898;-0.874;2023-05-12T03:10:23;101001.81;;;18.91;
46015;BME280;36844;51.898;-0.874;2023-05-12T03:12:48;100993.31;;;18.89;
46015;BME280;36844;51.898;-0.874;2023-05-12T03:15:13;100999.50;;;18.89;
46015;BME280;36844;51.898;-0.874;2023-05-12T03:17:38;101004.91;;;18.89;
46015;BME280;36844;51.898;-0.874;2023-05-12T03:20:04;101014.91;;;18.89;
46015;BME280;36844;51.898;-0.874;2023-05-12T03:22:29;101017.63;;;18.89;
46015;BME280;36844;51.898;-0.874;2023-05-12T03:24:55;101016.09;;;18.88;
46015;BME280;36844;51.898;-0.874;2023-05-12T03:30:23;101019.53;;;18.85;
46015;BME280;36844;51.898;-0.874;2023-05-12T03:32:48;101016.84;;;18.85;
46015;BME280;36844;51.898;-0.874;2023-05-12T03:35:13;101018.00;;;18.84;
46015;BME280;36844;51.898;-0.874;2023-05-12T03:37:39;101020.31;;;18.85;
46015;BME280;36844;51.898;-0.874;2023-05-12T03:40:04;101024.19;;;18.84;
46015;BME280;36844;51.898;-0.874;2023-05-12T03:42:30;101022.63;;;18.83;
46015;BME280;36844;51.898;-0.874;2023-05-12T03:44:55;101013.75;;;18.83;
46015;BME280;36844;51.898;-0.874;2023-05-12T03:47:20;101022.63;;;18.83;
46015;BME280;36844;51.898;-0.874;2023-05-12T03:49:45;101019.16;;;18.83;
46015;BME280;36844;51.898;-0.874;2023-05-12T03:52:11;101024.56;;;18.83;
46015;BME280;36844;51.898;-0.874;2023-05-12T03:54:36;101022.28;;;18.81;
46015;BME280;36844;51.898;-0.874;2023-05-12T03:57:01;101027.66;;;18.81;
46015;BME280;36844;51.898;-0.874;2023-05-12T03:59:30;101035.00;;;18.81;
46015;BME280;36844;51.898;-0.874;2023-05-12T04:01:56;101034.22;;;18.80;
46015;BME280;36844;51.898;-0.874;2023-05-12T04:04:21;101031.50;;;18.80;
46015;BME280;36844;51.898;-0.874;2023-05-12T04:06:46;101032.66;;;18.79;
46015;BME280;36844;51.898;-0.874;2023-05-12T04:09:12;101033.44;;;18.80;
46015;BME280;36844;51.898;-0.874;2023-05-12T04:11:37;101042.66;;;18.78;
46015;BME280;36844;51.898;-0.874;2023-05-12T04:14:02;101043.09;;;18.77;
46015;BME280;36844;51.898;-0.874;2023-05-12T04:16:27;101048.50;;;18.77;
46015;BME280;36844;51.898;-0.874;2023-05-12T04:18:53;101046.53;;;18.77;
46015;BME280;36844;51.898;-0.874;2023-05-12T04:21:18;101043.09;;;18.77;
46015;BME280;36844;51.898;-0.874;2023-05-12T04:23:43;101046.94;;;18.76;
46015;BME280;36844;51.898;-0.874;2023-05-12T04:26:08;101047.72;;;18.77;
46015;BME280;36844;51.898;-0.874;2023-05-12T04:28:33;101048.84;;;18.75;
46015;BME280;36844;51.898;-0.874;2023-05-12T04:31:01;101054.25;;;18.75;
46015;BME280;36844;51.898;-0.874;2023-05-12T04:33:28;101058.09;;;18.74;
46015;BME280;36844;51.898;-0.874;2023-05-12T04:35:56;101061.19;;;18.73;
46015;BME280;36844;51.898;-0.874;2023-05-12T04:38:21;101050.41;;;18.69;
46015;BME280;36844;51.898;-0.874;2023-05-12T04:40:47;101054.25;;;18.72;
46015;BME280;36844;51.898;-0.874;2023-05-12T04:43:12;101052.31;;;18.72;
46015;BME280;36844;51.898;-0.874;2023-05-12T04:45:37;101059.66;;;18.72;
46015;BME280;36844;51.898;-0.874;2023-05-12T04:48:02;101059.66;;;18.72;
46015;BME280;36844;51.898;-0.874;2023-05-12T04:50:28;101068.88;;;18.71;
46015;BME280;36844;51.898;-0.874;2023-05-12T04:52:53;101076.97;;;18.71;
46015;BME280;36844;51.898;-0.874;2023-05-12T04:55:18;101076.19;;;18.70;
46015;BME280;36844;51.898;-0.874;2023-05-12T04:57:43;101072.78;;;18.70;
46015;BME280;36844;51.898;-0.874;2023-05-12T05:00:09;101083.56;;;18.70;
46015;BME280;36844;51.898;-0.874;2023-05-12T05:02:34;101083.56;;;18.70;
46015;BME280;36844;51.898;-0.874;2023-05-12T05:04:59;101090.88;;;18.69;
46015;BME280;36844;51.898;-0.874;2023-05-12T05:07:24;101092.81;;;18.69;
46015;BME280;36844;51.898;-0.874;2023-05-12T05:09:50;101095.50;;;18.69;
46015;BME280;36844;51.898;-0.874;2023-05-12T05:12:15;101091.25;;;18.68;
46015;BME280;36844;51.898;-0.874;2023-05-12T05:14:40;101097.44;;;18.68;
46015;BME280;36844;51.898;-0.874;2023-05-12T05:17:05;101095.88;;;18.67;
46015;BME280;36844;51.898;-0.874;2023-05-12T05:19:36;101106.66;;;18.67;
46015;BME280;36844;51.898;-0.874;2023-05-12T05:22:01;101104.38;;;18.66;
46015;BME280;36844;51.898;-0.874;2023-05-12T05:24:27;101107.06;;;18.66;
46015;BME280;36844;51.898;-0.874;2023-05-12T05:26:52;101115.16;;;18.66;
46015;BME280;36844;51.898;-0.874;2023-05-12T05:29:17;101111.69;;;18.65;
46015;BME280;36844;51.898;-0.874;2023-05-12T05:31:42;101119.78;;;18.65;
46015;BME280;36844;51.898;-0.874;2023-05-12T05:34:08;101115.53;;;18.64;
46015;BME280;36844;51.898;-0.874;2023-05-12T05:36:33;101117.44;;;18.64;
46015;BME280;36844;51.898;-0.874;2023-05-12T05:38:58;101124.41;;;18.65;
46015;BME280;36844;51.898;-0.874;2023-05-12T05:41:24;101120.16;;;18.64;
46015;BME280;36844;51.898;-0.874;2023-05-12T05:43:49;101129.41;;;18.63;
46015;BME280;36844;51.898;-0.874;2023-05-12T05:46:14;101127.50;;;18.63;
46015;BME280;36844;51.898;-0.874;2023-05-12T05:48:39;101138.28;;;18.63;
46015;BME280;36844;51.898;-0.874;2023-05-12T05:51:05;101132.50;;;18.65;
46015;BME280;36844;51.898;-0.874;2023-05-12T05:53:30;101129.81;;;18.65;
46015;BME280;36844;51.898;-0.874;2023-05-12T05:55:56;101138.69;;;18.65;
46015;BME280;36844;51.898;-0.874;2023-05-12T05:58:21;101138.25;;;18.67;
46015;BME280;36844;51.898;-0.874;2023-05-12T06:00:46;101129.03;;;18.68;
46015;BME280;36844;51.898;-0.874;2023-05-12T06:03:11;101136.75;;;18.69;
46015;BME280;36844;51.898;-0.874;2023-05-12T06:05:37;101144.44;;;18.71;
46015;BME280;36844;51.898;-0.874;2023-05-12T06:08:02;101141.38;;;18.72;
46015;BME280;36844;51.898;-0.874;2023-05-12T06:10:29;101145.22;;;18.75;
46015;BME280;36844;51.898;-0.874;2023-05-12T06:12:54;101142.94;;;18.77;
46015;BME280;36844;51.898;-0.874;2023-05-12T06:15:19;101154.09;;;18.79;
46015;BME280;36844;51.898;-0.874;2023-05-12T06:17:45;101155.28;;;18.82;
46015;BME280;36844;51.898;-0.874;2023-05-12T06:20:10;101154.09;;;18.83;
46015;BME280;36844;51.898;-0.874;2023-05-12T06:22:37;101156.06;;;18.86;
46015;BME280;36844;51.898;-0.874;2023-05-12T06:25:02;101161.06;;;18.87;
46015;BME280;36844;51.898;-0.874;2023-05-12T06:27:28;101161.47;;;18.89;
46015;BME280;36844;51.898;-0.874;2023-05-12T06:29:53;101167.25;;;18.91;
46015;BME280;36844;51.898;-0.874;2023-05-12T06:32:18;101171.09;;;18.94;
46015;BME280;36844;51.898;-0.874;2023-05-12T06:34:43;101160.28;;;18.94;
46015;BME280;36844;51.898;-0.874;2023-05-12T06:37:09;101165.31;;;18.95;
46015;BME280;36844;51.898;-0.874;2023-05-12T06:39:34;101176.53;;;18.97;
46015;BME280;36844;51.898;-0.874;2023-05-12T06:42:00;101171.88;;;18.98;
46015;BME280;36844;51.898;-0.874;2023-05-12T06:44:25;101165.31;;;18.99;
46015;BME280;36844;51.898;-0.874;2023-05-12T06:46:50;101173.03;;;19.00;
46015;BME280;36844;51.898;-0.874;2023-05-12T06:49:16;101179.97;;;19.01;
46015;BME280;36844;51.898;-0.874;2023-05-12T06:51:41;101179.97;;;19.01;
46015;BME280;36844;51.898;-0.874;2023-05-12T06:54:06;101176.09;;;19.02;
46015;BME280;36844;51.898;-0.874;2023-05-12T06:56:32;101181.50;;;19.02;
46015;BME280;36844;51.898;-0.874;2023-05-12T06:58:57;101174.19;;;19.03;
46015;BME280;36844;51.898;-0.874;2023-05-12T07:01:25;101178.44;;;19.04;
46015;BME280;36844;51.898;-0.874;2023-05-12T07:03:51;101184.63;;;19.04;
46015;BME280;36844;51.898;-0.874;2023-05-12T07:06:16;101178.44;;;19.04;
46015;BME280;36844;51.898;-0.874;2023-05-12T07:08:41;101180.00;;;19.05;
46015;BME280;36844;51.898;-0.874;2023-05-12T07:11:06;101183.84;;;19.04;
46015;BME280;36844;51.898;-0.874;2023-05-12T07:13:31;101186.53;;;19.04;
46015;BME280;36844;51.898;-0.874;2023-05-12T07:15:57;101187.31;;;19.04;
46015;BME280;36844;51.898;-0.874;2023-05-12T07:18:22;101190.03;;;19.04;
46015;BME280;36844;51.898;-0.874;2023-05-12T07:20:47;101193.88;;;19.03;
46015;BME280;36844;51.898;-0.874;2023-05-12T07:23:13;101193.88;;;19.03;
46015;BME280;36844;51.898;-0.874;2023-05-12T07:25:38;101197.34;;;19.04;
46015;BME280;36844;51.898;-0.874;2023-05-12T07:28:03;101192.31;;;19.02;
46015;BME280;36844;51.898;-0.874;2023-05-12T07:30:29;101191.16;;;19.03;
46015;BME280;36844;51.898;-0.874;2023-05-12T07:32:54;101192.31;;;19.02;
46015;BME280;36844;51.898;-0.874;2023-05-12T07:35:19;101192.72;;;19.01;
46015;BME280;36844;51.898;-0.874;2023-05-12T07:37:45;101195.00;;;19.02;
46015;BME280;36844;51.898;-0.874;2023-05-12T07:40:10;101195.00;;;19.02;
46015;BME280;36844;51.898;-0.874;2023-05-12T07:42:36;101196.97;;;19.02;
46015;BME280;36844;51.898;-0.874;2023-05-12T07:45:01;101205.81;;;19.02;
46015;BME280;36844;51.898;-0.874;2023-05-12T07:47:26;101203.88;;;19.03;
46015;BME280;36844;51.898;-0.874;2023-05-12T07:49:52;101198.50;;;19.03;
46015;BME280;36844;51.898;-0.874;2023-05-12T07:52:17;101204.66;;;19.03;
46015;BME280;36844;51.898;-0.874;2023-05-12T07:54:43;101209.28;;;19.03;
46015;BME280;36844;51.898;-0.874;2023-05-12T07:57:08;101218.16;;;19.03;
46015;BME280;36844;51.898;-0.874;2023-05-12T07:59:33;101212.75;;;19.03;
46015;BME280;36844;51.898;-0.874;2023-05-12T08:01:58;101215.47;;;19.03;
46015;BME280;36844;51.898;-0.874;2023-05-12T08:04:23;101213.91;;;19.02;
46015;BME280;36844;51.898;-0.874;2023-05-12T08:06:49;101215.47;;;19.03;
46015;BME280;36844;51.898;-0.874;2023-05-12T08:09:14;101217.38;;;19.03;
46015;BME280;36844;51.898;-0.874;2023-05-12T08:11:39;101225.50;;;19.03;
46015;BME280;36844;51.898;-0.874;2023-05-12T08:14:05;101226.66;;;19.02;
46015;BME280;36844;51.898;-0.874;2023-05-12T08:16:31;101222.44;;;19.01;
46015;BME280;36844;51.898;-0.874;2023-05-12T08:18:56;101222.44;;;19.01;
46015;BME280;36844;51.898;-0.874;2023-05-12T08:21:22;101227.03;;;19.00;
46015;BME280;36844;51.898;-0.874;2023-05-12T08:23:48;101227.03;;;19.00;
46015;BME280;36844;51.898;-0.874;2023-05-12T08:26:13;101237.84;;;19.00;
46015;BME280;36844;51.898;-0.874;2023-05-12T08:28:38;101226.25;;;19.00;
46015;BME280;36844;51.898;-0.874;2023-05-12T08:31:03;101241.69;;;18.99;
46015;BME280;36844;51.898;-0.874;2023-05-12T08:33:29;101250.56;;;19.00;
46015;BME280;36844;51.898;-0.874;2023-05-12T08:35:54;101235.50;;;18.99;
46015;BME280;36844;51.898;-0.874;2023-05-12T08:38:19;101253.66;;;18.98;
46015;BME280;36844;51.898;-0.874;2023-05-12T08:40:46;101251.34;;;18.97;
46015;BME280;36844;51.898;-0.874;2023-05-12T08:43:36;101249.41;;;18.97;
46015;BME280;36844;51.898;-0.874;2023-05-12T08:46:02;101254.03;;;18.97;
46015;BME280;36844;51.898;-0.874;2023-05-12T08:48:28;101243.59;;;18.95;
46015;BME280;36844;51.898;-0.874;2023-05-12T08:50:54;101252.47;;;18.96;
46015;BME280;36844;51.898;-0.874;2023-05-12T08:53:20;101257.88;;;18.96;
46015;BME280;36844;51.898;-0.874;2023-05-12T08:55:46;101254.41;;;18.95;
46015;BME280;36844;51.898;-0.874;2023-05-12T08:58:11;101254.41;;;18.95;
46015;BME280;36844;51.898;-0.874;2023-05-12T09:00:37;101257.88;;;18.96;
46015;BME280;36844;51.898;-0.874;2023-05-12T09:03:04;101264.06;;;18.96;
46015;BME280;36844;51.898;-0.874;2023-05-12T09:08:32;101255.56;;;18.94;
46015;BME280;36844;51.898;-0.874;2023-05-12T09:10:59;101263.28;;;18.96;
46015;BME280;36844;51.898;-0.874;2023-05-12T09:16:09;101259.78;;;18.95;
46015;BME280;36844;51.898;-0.874;2023-05-12T09:18:54;101264.06;;;18.96;
46015;BME280;36844;51.898;-0.874;2023-05-12T09:21:20;101267.91;;;18.95;
46015;BME280;36844;51.898;-0.874;2023-05-12T09:23:56;101262.50;;;18.95;
46015;BME280;36844;51.898;-0.874;2023-05-12T09:26:21;101261.75;;;18.95;
46015;BME280;36844;51.898;-0.874;2023-05-12T09:28:47;101263.28;;;18.96;
46015;BME280;36844;51.898;-0.874;2023-05-12T09:31:22;101263.28;;;18.96;
46015;BME280;36844;51.898;-0.874;2023-05-12T09:33:48;101264.06;;;18.96;
46015;BME280;36844;51.898;-0.874;2023-05-12T09:36:23;101258.66;;;18.96;
46015;BME280;36844;51.898;-0.874;2023-05-12T09:38:58;101264.84;;;18.97;
46015;BME280;36844;51.898;-0.874;2023-05-12T09:41:24;101261.34;;;18.96;
46015;BME280;36844;51.898;-0.874;2023-05-12T09:43:51;101256.75;;;18.97;
46015;BME280;36844;51.898;-0.874;2023-05-12T09:46:16;101258.28;;;18.98;
46015;BME280;36844;51.898;-0.874;2023-05-12T09:48:41;101260.22;;;18.97;
46015;BME280;36844;51.898;-0.874;2023-05-12T09:51:08;101272.56;;;18.98;
46015;BME280;36844;51.898;-0.874;2023-05-12T09:53:39;101267.91;;;18.99;
46015;BME280;36844;51.898;-0.874;2023-05-12T09:56:06;101267.16;;;18.98;
46015;BME280;36844;51.898;-0.874;2023-05-12T09:58:31;101267.16;;;18.98;
46015;BME280;36844;51.898;-0.874;2023-05-12T10:00:57;101265.19;;;18.99;
46015;BME280;36844;51.898;-0.874;2023-05-12T10:03:22;101268.69;;;18.99;
46015;BME280;36844;51.898;-0.874;2023-05-12T10:06:06;101262.50;;;18.99;
46015;BME280;36844;51.898;-0.874;2023-05-12T10:08:35;101266.75;;;19.00;
46015;BME280;36844;51.898;-0.874;2023-05-12T10:11:01;101260.59;;;18.99;
46015;BME280;36844;51.898;-0.874;2023-05-12T10:13:28;101259.81;;;18.99;
46015;BME280;36844;51.898;-0.874;2023-05-12T10:15:56;101263.28;;;18.99;
46015;BME280;36844;51.898;-0.874;2023-05-12T10:18:23;101260.59;;;18.99;
46015;BME280;36844;51.898;-0.874;2023-05-12T10:20:48;101265.63;;;19.01;
46015;BME280;36844;51.898;-0.874;2023-05-12T10:23:15;101259.44;;;19.00;
46015;BME280;36844;51.898;-0.874;2023-05-12T10:25:42;101265.63;;;19.01;
46015;BME280;36844;51.898;-0.874;2023-05-12T10:28:08;101265.22;;;19.02;
46015;BME280;36844;51.898;-0.874;2023-05-12T10:30:33;101264.47;;;19.02;
46015;BME280;36844;51.898;-0.874;2023-05-12T10:32:59;101273.31;;;19.02;
46015;BME280;36844;51.898;-0.874;2023-05-12T10:35:32;101265.22;;;19.02;
46015;BME280;36844;51.898;-0.874;2023-05-12T10:38:04;101267.16;;;19.02;
46015;BME280;36844;51.898;-0.874;2023-05-12T10:40:30;101265.22;;;19.02;
46015;BME280;36844;51.898;-0.874;2023-05-12T10:42:56;101266.38;;;19.01;
46015;BME280;36844;51.898;-0.874;2023-05-12T10:45:22;101263.69;;;19.01;
46015;BME280;36844;51.898;-0.874;2023-05-12T10:47:47;101260.97;;;19.01;
46015;BME280;36844;51.898;-0.874;2023-05-12T10:50:13;101263.69;;;19.01;
46015;BME280;36844;51.898;-0.874;2023-05-12T10:52:59;101266.38;;;19.01;
46015;BME280;36844;51.898;-0.874;2023-05-12T10:55:31;101263.69;;;19.01;
46015;BME280;36844;51.898;-0.874;2023-05-12T10:58:09;101274.47;;;19.01;
46015;BME280;36844;51.898;-0.874;2023-05-12T11:00:49;101257.53;;;19.01;
46015;BME280;36844;51.898;-0.874;2023-05-12T11:03:15;101262.16;;;19.00;
46015;BME280;36844;51.898;-0.874;2023-05-12T11:05:41;101258.66;;;19.00;
46015;BME280;36844;51.898;-0.874;2023-05-12T11:08:06;101260.97;;;19.01;
46015;BME280;36844;51.898;-0.874;2023-05-12T11:10:32;101260.22;;;19.01;
46015;BME280;36844;51.898;-0.874;2023-05-12T11:12:57;101264.06;;;19.00;
46015;BME280;36844;51.898;-0.874;2023-05-12T11:15:22;101264.84;;;19.00;
46015;BME280;36844;51.898;-0.874;2023-05-12T11:17:47;101266.38;;;19.01;
46015;BME280;36844;51.898;-0.874;2023-05-12T11:20:22;101258.28;;;19.01;
46015;BME280;36844;51.898;-0.874;2023-05-12T11:22:48;101255.97;;;19.00;
46015;BME280;36844;51.898;-0.874;2023-05-12T11:25:13;101251.34;;;19.00;
46015;BME280;36844;51.898;-0.874;2023-05-12T11:27:44;101245.94;;;19.00;
46015;BME280;36844;51.898;-0.874;2023-05-12T11:30:09;101250.56;;;19.00;
46015;BME280;36844;51.898;-0.874;2023-05-12T11:32:35;101250.19;;;19.01;
46015;BME280;36844;51.898;-0.874;2023-05-12T11:35:10;101248.66;;;19.00;
46015;BME280;36844;51.898;-0.874;2023-05-12T11:37:36;101254.03;;;19.00;
46015;BME280;36844;51.898;-0.874;2023-05-12T11:40:02;101247.88;;;19.00;
46015;BME280;36844;51.898;-0.874;2023-05-12T11:42:28;101253.25;;;19.00;
46015;BME280;36844;51.898;-0.874;2023-05-12T11:44:53;101257.88;;;18.99;
46015;BME280;36844;51.898;-0.874;2023-05-12T11:47:19;101258.66;;;19.00;
46015;BME280;36844;51.898;-0.874;2023-05-12T11:52:09;101253.25;;;19.00;
46015;BME280;36844;51.898;-0.874;2023-05-12T11:54:35;101257.88;;;18.99;
46015;BME280;36844;51.898;-0.874;2023-05-12T11:57:01;101257.09;;;18.99;
46015;BME280;36844;51.898;-0.874;2023-05-12T11:59:28;101256.34;;;18.98;
46015;BME280;36844;51.898;-0.874;2023-05-12T12:01:54;101259.06;;;18.98;
46015;BME280;36844;51.898;-0.874;2023-05-12T12:04:29;101264.44;;;18.98;
46015;BME280;36844;51.898;-0.874;2023-05-12T12:06:55;101261.75;;;18.98;
46015;BME280;36844;51.898;-0.874;2023-05-12T12:09:28;101260.22;;;18.97;
46015;BME280;36844;51.898;-0.874;2023-05-12T12:11:53;101260.97;;;18.98;
46015;BME280;36844;51.898;-0.874;2023-05-12T12:14:19;101263.66;;;18.98;
46015;BME280;36844;51.898;-0.874;2023-05-12T12:16:44;101260.22;;;18.97;
46015;BME280;36844;51.898;-0.874;2023-05-12T12:19:09;101258.66;;;18.96;
46015;BME280;36844;51.898;-0.874;2023-05-12T12:21:34;101262.13;;;18.97;
46015;BME280;36844;51.898;-0.874;2023-05-12T12:24:00;101265.63;;;18.97;
46015;BME280;36844;51.898;-0.874;2023-05-12T12:26:25;101256.75;;;18.97;
46015;BME280;36844;51.898;-0.874;2023-05-12T12:28:50;101261.34;;;18.96;
46015;BME280;36844;51.898;-0.874;2023-05-12T12:31:16;101260.56;;;18.96;
46015;BME280;36844;51.898;-0.874;2023-05-12T12:33:41;101249.00;;;18.95;
46015;BME280;36844;51.898;-0.874;2023-05-12T12:36:06;101253.25;;;18.96;
46015;BME280;36844;51.898;-0.874;2023-05-12T12:38:32;101252.47;;;18.96;
46015;BME280;36844;51.898;-0.874;2023-05-12T12:40:57;101254.41;;;18.95;
46015;BME280;36844;51.898;-0.874;2023-05-12T12:43:22;101265.97;;;18.96;
46015;BME280;36844;51.898;-0.874;2023-05-12T12:45:47;101258.25;;;18.94;
46015;BME280;36844;51.898;-0.874;2023-05-12T12:48:13;101259.03;;;18.95;
46015;BME280;36844;51.898;-0.874;2023-05-12T12:50:38;101253.66;;;18.95;
46015;BME280;36844;51.898;-0.874;2023-05-12T12:53:03;101252.88;;;18.94;
46015;BME280;36844;51.898;-0.874;2023-05-12T12:55:29;101242.84;;;18.95;
46015;BME280;36844;51.898;-0.874;2023-05-12T12:57:55;101240.16;;;18.95;
46015;BME280;36844;51.898;-0.874;2023-05-12T13:00:20;101252.88;;;18.94;
46015;BME280;36844;51.898;-0.874;2023-05-12T13:02:47;101255.56;;;18.94;
46015;BME280;36844;51.898;-0.874;2023-05-12T13:05:13;101254.78;;;18.94;
46015;BME280;36844;51.898;-0.874;2023-05-12T13:07:39;101253.25;;;18.93;
46015;BME280;36844;51.898;-0.874;2023-05-12T13:10:04;101254.38;;;18.92;
46015;BME280;36844;51.898;-0.874;2023-05-12T13:12:29;101267.88;;;18.92;
46015;BME280;36844;51.898;-0.874;2023-05-12T13:14:55;101247.47;;;18.91;
46015;BME280;36844;51.898;-0.874;2023-05-12T13:17:20;101257.47;;;18.90;
46015;BME280;36844;51.898;-0.874;2023-05-12T13:19:46;101247.84;;;18.89;
46015;BME280;36844;51.898;-0.874;2023-05-12T13:22:11;101260.56;;;18.89;
46015;BME280;36844;51.898;-0.874;2023-05-12T13:24:36;101254.38;;;18.88;
46015;BME280;36844;51.898;-0.874;2023-05-12T13:27:02;101253.63;;;18.88;
46015;BME280;36844;51.898;-0.874;2023-05-12T13:29:32;101254.78;;;18.87;
46015;BME280;36844;51.898;-0.874;2023-05-12T13:31:57;101249.38;;;18.87;
46015;BME280;36844;51.898;-0.874;2023-05-12T13:34:22;101247.84;;;18.86;
46015;BME280;36844;51.898;-0.874;2023-05-12T13:36:47;101238.97;;;18.85;